Terminal Aerodrome Forecast
Issued by NWS

Home | Current Version | Previous Version | Text Only | Print | Product List | Glossary Off
Versions: 1 2 3 4 5 6 7 8 9 10 11 12 13 14 15 16 17 18 19

000
FTUS43 KMPX 241121
TAFRWF
TAF
KRWF 241121Z 2412/2512 27008KT P6SM SCT150
     FM242200 29005KT P6SM VCSH BKN020 OVC070
     FM250000 36005KT 1 1/2SM -RASN OVC012
     FM250200 36011KT 1 1/2SM -SN OVC009
      TEMPO 2502/2506 3/4SM -SN VV006=

USA.gov is the U.S. government's official web portal to all federal, state and local government web resources and services.